sensor_id;sensor_type;location;lat;lon;timestamp;pressure;altitude;pressure_sealevel;temperature;humidity
9187;BME280;7273;48.902;9.410;2022-10-18T00:01:46;98907.50;;;14.35;76.64
9187;BME280;7273;48.902;9.410;2022-10-18T00:04:11;98904.78;;;14.35;76.92
9187;BME280;7273;48.902;9.410;2022-10-18T00:06:37;98908.03;;;14.32;76.71
9187;BME280;7273;48.902;9.410;2022-10-18T00:09:03;98912.97;;;14.30;76.99
9187;BME280;7273;48.902;9.410;2022-10-18T00:11:28;98909.72;;;14.28;77.19
9187;BME280;7273;48.902;9.410;2022-10-18T00:13:55;98914.59;;;14.26;77.22
9187;BME280;7273;48.902;9.410;2022-10-18T00:16:21;98920.59;;;14.28;77.21
9187;BME280;7273;48.902;9.410;2022-10-18T00:18:46;98918.66;;;14.29;77.04
9187;BME280;7273;48.902;9.410;2022-10-18T00:21:15;98915.69;;;14.30;77.23
9187;BME280;7273;48.902;9.410;2022-10-18T00:23:41;98924.09;;;14.29;77.46
9187;BME280;7273;48.902;9.410;2022-10-18T00:26:11;98921.63;;;14.32;77.47
9187;BME280;7273;48.902;9.410;2022-10-18T00:28:38;98922.75;;;14.31;77.34
9187;BME280;7273;48.902;9.410;2022-10-18T00:33:52;98924.09;;;14.29;77.34
9187;BME280;7273;48.902;9.410;2022-10-18T00:36:19;98924.66;;;14.31;77.33
9187;BME280;7273;48.902;9.410;2022-10-18T00:38:45;98921.94;;;14.26;77.20
9187;BME280;7273;48.902;9.410;2022-10-18T00:41:15;98926.03;;;14.28;77.36
9187;BME280;7273;48.902;9.410;2022-10-18T00:43:57;98926.31;;;14.27;77.51
9187;BME280;7273;48.902;9.410;2022-10-18T00:46:26;98925.75;;;14.20;77.63
9187;BME280;7273;48.902;9.410;2022-10-18T00:48:54;98927.94;;;14.13;77.63
9187;BME280;7273;48.902;9.410;2022-10-18T00:51:20;98929.31;;;14.15;79.74
9187;BME280;7273;48.902;9.410;2022-10-18T00:53:47;98927.94;;;14.13;78.01
9187;BME280;7273;48.902;9.410;2022-10-18T00:56:13;98925.78;;;14.10;77.65
9187;BME280;7273;48.902;9.410;2022-10-18T00:58:39;98917.09;;;14.08;77.90
9187;BME280;7273;48.902;9.410;2022-10-18T01:01:06;98923.63;;;14.07;77.63
9187;BME280;7273;48.902;9.410;2022-10-18T01:03:31;98918.47;;;14.10;77.89
9187;BME280;7273;48.902;9.410;2022-10-18T01:05:57;98923.06;;;14.10;77.67
9187;BME280;7273;48.902;9.410;2022-10-18T01:14:53;98923.63;;;14.12;78.11
9187;BME280;7273;48.902;9.410;2022-10-18T01:17:54;98928.50;;;14.15;78.21
9187;BME280;7273;48.902;9.410;2022-10-18T01:32:02;98929.56;;;14.24;78.86
9187;BME280;7273;48.902;9.410;2022-10-18T01:34:31;98927.09;;;14.27;78.14
9187;BME280;7273;48.902;9.410;2022-10-18T01:36:59;98924.38;;;14.27;77.81
9187;BME280;7273;48.902;9.410;2022-10-18T01:39:28;98933.09;;;14.29;78.01
9187;BME280;7273;48.902;9.410;2022-10-18T01:41:56;98925.47;;;14.31;78.28
9187;BME280;7273;48.902;9.410;2022-10-18T01:44:26;98925.72;;;14.35;78.11
9187;BME280;7273;48.902;9.410;2022-10-18T01:46:55;98920.81;;;14.37;77.71
9187;BME280;7273;48.902;9.410;2022-10-18T01:49:21;98924.59;;;14.41;78.05
9187;BME280;7273;48.902;9.410;2022-10-18T01:51:46;98933.03;;;14.44;77.93
9187;BME280;7273;48.902;9.410;2022-10-18T01:54:15;98928.13;;;14.46;78.11
9187;BME280;7273;48.902;9.410;2022-10-18T02:11:00;98921.72;;;14.71;78.27
9187;BME280;7273;48.902;9.410;2022-10-18T02:13:33;98910.00;;;14.70;78.11
9187;BME280;7273;48.902;9.410;2022-10-18T02:16:05;98912.44;;;14.72;77.86
9187;BME280;7273;48.902;9.410;2022-10-18T02:18:40;98918.13;;;14.75;78.12
9187;BME280;7273;48.902;9.410;2022-10-18T02:21:09;98913.81;;;14.74;78.04
9187;BME280;7273;48.902;9.410;2022-10-18T02:23:37;98916.50;;;14.79;77.76
9187;BME280;7273;48.902;9.410;2022-10-18T02:26:03;98913.19;;;14.82;77.84
9187;BME280;7273;48.902;9.410;2022-10-18T02:28:30;98906.44;;;14.75;78.04
9187;BME280;7273;48.902;9.410;2022-10-18T02:31:03;98909.94;;;14.80;77.93
9187;BME280;7273;48.902;9.410;2022-10-18T02:33:44;98895.22;;;14.81;77.98
9187;BME280;7273;48.902;9.410;2022-10-18T02:36:33;98899.59;;;14.82;78.40
9187;BME280;7273;48.902;9.410;2022-10-18T02:39:04;98905.31;;;14.81;77.96
9187;BME280;7273;48.902;9.410;2022-10-18T02:41:32;98910.22;;;14.79;78.00
9187;BME280;7273;48.902;9.410;2022-10-18T02:43:58;98901.53;;;14.77;78.16
9187;BME280;7273;48.902;9.410;2022-10-18T02:46:23;98903.41;;;14.76;78.19
9187;BME280;7273;48.902;9.410;2022-10-18T02:48:49;98898.00;;;14.71;78.26
9187;BME280;7273;48.902;9.410;2022-10-18T02:51:14;98902.91;;;14.74;78.27
9187;BME280;7273;48.902;9.410;2022-10-18T02:53:40;98904.53;;;14.75;78.54
9187;BME280;7273;48.902;9.410;2022-10-18T02:56:06;98899.94;;;14.71;78.52
9187;BME280;7273;48.902;9.410;2022-10-18T02:58:32;98900.22;;;14.69;78.38
9187;BME280;7273;48.902;9.410;2022-10-18T03:00:57;98900.22;;;14.69;78.87
9187;BME280;7273;48.902;9.410;2022-10-18T03:03:22;98903.22;;;14.68;78.75
9187;BME280;7273;48.902;9.410;2022-10-18T03:05:49;98903.44;;;14.71;78.44
9187;BME280;7273;48.902;9.410;2022-10-18T03:08:14;98897.78;;;14.68;78.63
9187;BME280;7273;48.902;9.410;2022-10-18T03:10:45;98897.78;;;14.68;78.65
9187;BME280;7273;48.902;9.410;2022-10-18T03:13:11;98898.56;;;14.68;78.78
9187;BME280;7273;48.902;9.410;2022-10-18T03:15:37;98891.75;;;14.71;78.88
9187;BME280;7273;48.902;9.410;2022-10-18T03:18:03;98882.19;;;14.73;78.59
9187;BME280;7273;48.902;9.410;2022-10-18T03:20:28;98891.44;;;14.77;78.48
9187;BME280;7273;48.902;9.410;2022-10-18T03:22:54;98892.78;;;14.80;78.50
9187;BME280;7273;48.902;9.410;2022-10-18T03:25:19;98890.31;;;14.83;78.81
9187;BME280;7273;48.902;9.410;2022-10-18T03:27:44;98894.13;;;14.82;78.69
9187;BME280;7273;48.902;9.410;2022-10-18T03:30:10;98894.13;;;14.82;78.35
9187;BME280;7273;48.902;9.410;2022-10-18T03:32:37;98897.47;;;14.74;78.80
9187;BME280;7273;48.902;9.410;2022-10-18T03:35:04;98896.34;;;14.75;78.47
9187;BME280;7273;48.902;9.410;2022-10-18T03:37:30;98886.56;;;14.74;78.76
9187;BME280;7273;48.902;9.410;2022-10-18T03:39:55;98899.63;;;14.77;78.74
9187;BME280;7273;48.902;9.410;2022-10-18T03:42:21;98899.06;;;14.75;78.89
9187;BME280;7273;48.902;9.410;2022-10-18T03:44:47;98893.09;;;14.73;79.03
9187;BME280;7273;48.902;9.410;2022-10-18T03:47:12;98894.75;;;14.74;78.97
9187;BME280;7273;48.902;9.410;2022-10-18T03:49:37;98893.38;;;14.72;79.07
9187;BME280;7273;48.902;9.410;2022-10-18T03:52:03;98895.06;;;14.68;78.92
9187;BME280;7273;48.902;9.410;2022-10-18T03:54:28;98895.06;;;14.68;79.30
9187;BME280;7273;48.902;9.410;2022-10-18T03:56:54;98900.22;;;14.69;79.00
9187;BME280;7273;48.902;9.410;2022-10-18T03:59:19;98896.94;;;14.72;79.00
9187;BME280;7273;48.902;9.410;2022-10-18T04:01:45;98896.94;;;14.72;79.00
9187;BME280;7273;48.902;9.410;2022-10-18T04:04:10;98891.50;;;14.67;79.31
9187;BME280;7273;48.902;9.410;2022-10-18T04:06:35;98893.66;;;14.70;79.18
9187;BME280;7273;48.902;9.410;2022-10-18T04:09:01;98899.41;;;14.69;79.36
9187;BME280;7273;48.902;9.410;2022-10-18T04:11:26;98894.22;;;14.67;79.05
9187;BME280;7273;48.902;9.410;2022-10-18T04:13:52;98900.22;;;14.69;79.17
9187;BME280;7273;48.902;9.410;2022-10-18T04:16:17;98903.19;;;14.73;78.92
9187;BME280;7273;48.902;9.410;2022-10-18T04:18:42;98894.50;;;14.71;78.94
9187;BME280;7273;48.902;9.410;2022-10-18T04:21:08;98898.53;;;14.73;79.10
9187;BME280;7273;48.902;9.410;2022-10-18T04:23:33;98895.81;;;14.73;79.22
9187;BME280;7273;48.902;9.410;2022-10-18T04:25:59;98895.56;;;14.70;78.96
9187;BME280;7273;48.902;9.410;2022-10-18T04:28:24;98893.66;;;14.70;79.25
9187;BME280;7273;48.902;9.410;2022-10-18T04:30:51;98892.31;;;14.73;79.06
9187;BME280;7273;48.902;9.410;2022-10-18T04:33:17;98891.75;;;14.71;79.07
9187;BME280;7273;48.902;9.410;2022-10-18T04:35:42;98895.81;;;14.73;79.13
9187;BME280;7273;48.902;9.410;2022-10-18T04:38:08;98898.28;;;14.70;79.43
9187;BME280;7273;48.902;9.410;2022-10-18T04:40:33;98899.41;;;14.69;79.18
9187;BME280;7273;48.902;9.410;2022-10-18T04:42:58;98907.28;;;14.70;79.43
9187;BME280;7273;48.902;9.410;2022-10-18T04:45:24;98902.91;;;14.74;79.21
9187;BME280;7273;48.902;9.410;2022-10-18T04:47:49;98906.16;;;14.71;79.28
9187;BME280;7273;48.902;9.410;2022-10-18T04:50:15;98912.44;;;14.72;79.51
9187;BME280;7273;48.902;9.410;2022-10-18T04:52:40;98902.94;;;14.69;79.51
9187;BME280;7273;48.902;9.410;2022-10-18T04:55:06;98910.53;;;14.72;79.28
9187;BME280;7273;48.902;9.410;2022-10-18T04:57:31;98908.63;;;14.73;79.34
9187;BME280;7273;48.902;9.410;2022-10-18T04:59:57;98914.09;;;14.73;79.46
9187;BME280;7273;48.902;9.410;2022-10-18T05:02:22;98911.09;;;14.74;79.44
9187;BME280;7273;48.902;9.410;2022-10-18T05:04:48;98917.03;;;14.76;79.23
9187;BME280;7273;48.902;9.410;2022-10-18T05:07:13;98916.53;;;14.74;79.22
9187;BME280;7273;48.902;9.410;2022-10-18T05:09:39;98908.06;;;14.76;79.25
9187;BME280;7273;48.902;9.410;2022-10-18T05:12:04;98914.34;;;14.71;79.50
9187;BME280;7273;48.902;9.410;2022-10-18T05:14:30;98910.00;;;14.70;79.18
9187;BME280;7273;48.902;9.410;2022-10-18T05:16:55;98914.34;;;14.71;79.40
9187;BME280;7273;48.902;9.410;2022-10-18T05:19:20;98909.47;;;14.68;79.37
9187;BME280;7273;48.902;9.410;2022-10-18T05:21:46;98908.13;;;14.66;79.25
9187;BME280;7273;48.902;9.410;2022-10-18T05:24:11;98912.50;;;14.62;79.30
9187;BME280;7273;48.902;9.410;2022-10-18T05:26:37;98913.31;;;14.62;79.61
9187;BME280;7273;48.902;9.410;2022-10-18T05:29:02;98913.59;;;14.61;79.28
9187;BME280;7273;48.902;9.410;2022-10-18T05:31:28;98906.28;;;14.56;79.22
9187;BME280;7273;48.902;9.410;2022-10-18T05:33:53;98916.94;;;14.53;79.69
9187;BME280;7273;48.902;9.410;2022-10-18T05:36:19;98905.78;;;14.49;79.79
9187;BME280;7273;48.902;9.410;2022-10-18T05:38:44;98900.34;;;14.49;79.81
9187;BME280;7273;48.902;9.410;2022-10-18T05:41:12;98907.13;;;14.47;79.52
9187;BME280;7273;48.902;9.410;2022-10-18T05:43:38;98904.41;;;14.47;79.83
9187;BME280;7273;48.902;9.410;2022-10-18T05:46:04;98901.47;;;14.43;79.77
9187;BME280;7273;48.902;9.410;2022-10-18T05:48:31;98902.53;;;14.42;79.77
9187;BME280;7273;48.902;9.410;2022-10-18T05:50:58;98909.63;;;14.43;79.61
9187;BME280;7273;48.902;9.410;2022-10-18T05:53:24;98918.31;;;14.45;79.67
9187;BME280;7273;48.902;9.410;2022-10-18T05:55:49;98912.88;;;14.40;79.89
9187;BME280;7273;48.902;9.410;2022-10-18T05:58:15;98916.47;;;14.36;79.59
9187;BME280;7273;48.902;9.410;2022-10-18T06:00:40;98915.16;;;14.28;79.99
9187;BME280;7273;48.902;9.410;2022-10-18T06:03:06;98914.31;;;14.28;80.05
9187;BME280;7273;48.902;9.410;2022-10-18T06:05:31;98908.59;;;14.29;79.99
9187;BME280;7273;48.902;9.410;2022-10-18T06:07:57;98901.00;;;14.26;80.19
9187;BME280;7273;48.902;9.410;2022-10-18T06:10:23;98909.44;;;14.30;80.45
9187;BME280;7273;48.902;9.410;2022-10-18T06:12:48;98907.78;;;14.29;79.97
9187;BME280;7273;48.902;9.410;2022-10-18T06:15:14;98909.66;;;14.38;79.98
9187;BME280;7273;48.902;9.410;2022-10-18T06:17:39;98918.34;;;14.40;79.88
9187;BME280;7273;48.902;9.410;2022-10-18T06:20:05;98914.25;;;14.43;79.82
9187;BME280;7273;48.902;9.410;2022-10-18T06:22:32;98915.31;;;14.47;79.86
9187;BME280;7273;48.902;9.410;2022-10-18T06:24:57;98913.94;;;14.49;79.69
9187;BME280;7273;48.902;9.410;2022-10-18T06:27:22;98915.28;;;14.52;80.13
9187;BME280;7273;48.902;9.410;2022-10-18T06:29:48;98912.53;;;14.57;80.16
9187;BME280;7273;48.902;9.410;2022-10-18T06:32:13;98921.22;;;14.64;79.95
9187;BME280;7273;48.902;9.410;2022-10-18T06:34:39;98927.44;;;14.69;79.99
9187;BME280;7273;48.902;9.410;2022-10-18T06:37:04;98921.69;;;14.76;79.85
9187;BME280;7273;48.902;9.410;2022-10-18T06:39:30;98925.44;;;14.85;79.82
9187;BME280;7273;48.902;9.410;2022-10-18T06:41:55;98931.63;;;14.96;79.60
9187;BME280;7273;48.902;9.410;2022-10-18T06:44:20;98923.38;;;15.06;79.80
9187;BME280;7273;48.902;9.410;2022-10-18T06:46:47;98932.59;;;15.10;79.56
9187;BME280;7273;48.902;9.410;2022-10-18T06:49:14;98927.13;;;15.15;79.46
9187;BME280;7273;48.902;9.410;2022-10-18T06:51:41;98929.22;;;15.23;79.42
9187;BME280;7273;48.902;9.410;2022-10-18T06:54:06;98929.44;;;15.31;79.26
9187;BME280;7273;48.902;9.410;2022-10-18T06:56:33;98932.41;;;15.40;79.42
9187;BME280;7273;48.902;9.410;2022-10-18T06:58:58;98938.84;;;15.49;79.35
9187;BME280;7273;48.902;9.410;2022-10-18T07:01:24;98935.19;;;15.58;79.03
9187;BME280;7273;48.902;9.410;2022-10-18T07:03:52;98937.31;;;15.66;79.04
9187;BME280;7273;48.902;9.410;2022-10-18T07:06:18;98945.97;;;15.73;79.09
9187;BME280;7273;48.902;9.410;2022-10-18T07:08:44;98940.69;;;15.82;78.88
9187;BME280;7273;48.902;9.410;2022-10-18T07:11:15;98946.06;;;15.92;78.96
9187;BME280;7273;48.902;9.410;2022-10-18T07:13:41;98944.59;;;15.99;78.86
9187;BME280;7273;48.902;9.410;2022-10-18T07:16:11;98944.19;;;16.11;78.38
9187;BME280;7273;48.902;9.410;2022-10-18T07:18:39;98941.34;;;16.21;78.35
9187;BME280;7273;48.902;9.410;2022-10-18T07:21:06;98937.91;;;16.34;78.01
9187;BME280;7273;48.902;9.410;2022-10-18T07:23:34;98939.69;;;16.44;77.88
9187;BME280;7273;48.902;9.410;2022-10-18T07:25:59;98940.94;;;16.56;77.63
9187;BME280;7273;48.902;9.410;2022-10-18T07:28:26;98942.44;;;16.67;77.57
9187;BME280;7273;48.902;9.410;2022-10-18T07:30:52;98939.78;;;16.81;77.22
9187;BME280;7273;48.902;9.410;2022-10-18T07:33:17;98956.84;;;16.91;76.97
9187;BME280;7273;48.902;9.410;2022-10-18T07:35:45;98959.41;;;17.01;76.76
9187;BME280;7273;48.902;9.410;2022-10-18T07:38:10;98954.88;;;17.10;76.59
9187;BME280;7273;48.902;9.410;2022-10-18T07:40:36;98963.25;;;17.19;76.53
9187;BME280;7273;48.902;9.410;2022-10-18T07:43:02;98952.44;;;17.27;76.41
9187;BME280;7273;48.902;9.410;2022-10-18T07:45:27;98947.13;;;17.36;76.34
9187;BME280;7273;48.902;9.410;2022-10-18T07:47:54;98945.69;;;17.38;76.75
9187;BME280;7273;48.902;9.410;2022-10-18T07:50:20;98953.81;;;17.43;76.94
9187;BME280;7273;48.902;9.410;2022-10-18T07:52:45;98959.00;;;17.45;77.32
9187;BME280;7273;48.902;9.410;2022-10-18T07:55:11;98958.41;;;17.48;77.35
9187;BME280;7273;48.902;9.410;2022-10-18T07:57:36;98953.75;;;17.49;77.71
9187;BME280;7273;48.902;9.410;2022-10-18T08:00:02;98950.72;;;17.50;77.68
9187;BME280;7273;48.902;9.410;2022-10-18T08:02:28;98950.72;;;17.50;78.02
9187;BME280;7273;48.902;9.410;2022-10-18T08:04:53;98944.34;;;17.55;77.99
9187;BME280;7273;48.902;9.410;2022-10-18T08:07:18;98954.41;;;17.59;78.00
9187;BME280;7273;48.902;9.410;2022-10-18T08:09:44;98952.38;;;17.65;78.05
9187;BME280;7273;48.902;9.410;2022-10-18T08:12:09;98957.47;;;17.71;78.02
9187;BME280;7273;48.902;9.410;2022-10-18T08:14:35;98953.03;;;17.75;78.18
9187;BME280;7273;48.902;9.410;2022-10-18T08:17:00;98955.88;;;17.84;78.11
9187;BME280;7273;48.902;9.410;2022-10-18T08:19:26;98953.06;;;17.89;78.06
9187;BME280;7273;48.902;9.410;2022-10-18T08:21:51;98958.13;;;17.95;78.11
9187;BME280;7273;48.902;9.410;2022-10-18T08:24:17;98963.91;;;18.07;78.23
9187;BME280;7273;48.902;9.410;2022-10-18T08:26:42;98968.88;;;18.19;78.17
9187;BME280;7273;48.902;9.410;2022-10-18T08:29:07;98972.66;;;18.23;78.32
9187;BME280;7273;48.902;9.410;2022-10-18T08:31:34;98976.19;;;18.37;78.13
9187;BME280;7273;48.902;9.410;2022-10-18T08:34:00;98973.19;;;18.52;78.15
9187;BME280;7273;48.902;9.410;2022-10-18T08:36:25;98977.31;;;18.77;77.93
9187;BME280;7273;48.902;9.410;2022-10-18T08:38:50;98980.66;;;18.87;77.87
9187;BME280;7273;48.902;9.410;2022-10-18T08:46:44;98989.44;;;19.47;77.01
9187;BME280;7273;48.902;9.410;2022-10-18T08:49:25;98986.75;;;19.55;77.24
9187;BME280;7273;48.902;9.410;2022-10-18T08:51:54;98986.41;;;19.79;76.85
9187;BME280;7273;48.902;9.410;2022-10-18T08:54:25;98995.97;;;19.81;76.98
9187;BME280;7273;48.902;9.410;2022-10-18T08:56:58;98992.03;;;19.74;77.15
9187;BME280;7273;48.902;9.410;2022-10-18T08:59:24;98994.50;;;19.75;76.96
9187;BME280;7273;48.902;9.410;2022-10-18T09:07:07;98986.41;;;19.79;76.83
9187;BME280;7273;48.902;9.410;2022-10-18T09:09:51;99001.56;;;20.21;76.24
9187;BME280;7273;48.902;9.410;2022-10-18T09:18:15;99005.13;;;20.21;75.73
9187;BME280;7273;48.902;9.410;2022-10-18T09:20:56;99003.03;;;20.27;75.37
9187;BME280;7273;48.902;9.410;2022-10-18T09:26:21;99009.72;;;20.34;75.50
9187;BME280;7273;48.902;9.410;2022-10-18T09:34:57;99032.16;;;20.36;75.06
9187;BME280;7273;48.902;9.410;2022-10-18T09:37:26;99031.72;;;20.82;74.25
9187;BME280;7273;48.902;9.410;2022-10-18T09:40:02;99026.81;;;21.44;72.78
9187;BME280;7273;48.902;9.410;2022-10-18T09:42:36;99022.09;;;21.95;71.63
9187;BME280;7273;48.902;9.410;2022-10-18T09:47:50;99026.78;;;22.49;70.71
9187;BME280;7273;48.902;9.410;2022-10-18T09:50:33;99027.47;;;22.46;70.21
9187;BME280;7273;48.902;9.410;2022-10-18T09:53:17;99022.31;;;22.36;70.23
9187;BME280;7273;48.902;9.410;2022-10-18T09:56:00;99028.47;;;22.33;70.37
9187;BME280;7273;48.902;9.410;2022-10-18T10:01:01;99024.69;;;22.93;71.14
9187;BME280;7273;48.902;9.410;2022-10-18T10:03:27;99027.50;;;23.05;72.28
9187;BME280;7273;48.902;9.410;2022-10-18T10:08:41;99031.09;;;22.76;73.49
9187;BME280;7273;48.902;9.410;2022-10-18T10:11:36;99036.75;;;22.80;71.66
9187;BME280;7273;48.902;9.410;2022-10-18T10:14:12;99037.47;;;22.68;72.72
9187;BME280;7273;48.902;9.410;2022-10-18T10:16:50;99040.44;;;22.54;72.66
9187;BME280;7273;48.902;9.410;2022-10-18T10:19:19;99042.53;;;22.57;73.28
9187;BME280;7273;48.902;9.410;2022-10-18T10:21:46;99035.63;;;22.72;72.88
9187;BME280;7273;48.902;9.410;2022-10-18T10:24:23;99037.25;;;22.82;72.32
9187;BME280;7273;48.902;9.410;2022-10-18T10:26:49;99027.84;;;22.74;72.90
9187;BME280;7273;48.902;9.410;2022-10-18T10:29:48;99027.84;;;23.03;70.95
9187;BME280;7273;48.902;9.410;2022-10-18T10:32:16;99027.41;;;23.22;67.31
9187;BME280;7273;48.902;9.410;2022-10-18T10:34:42;99021.78;;;23.59;71.02
9187;BME280;7273;48.902;9.410;2022-10-18T10:40:05;99017.81;;;24.46;64.21
9187;BME280;7273;48.902;9.410;2022-10-18T10:42:32;99019.94;;;24.97;69.05
9187;BME280;7273;48.902;9.410;2022-10-18T10:44:59;99023.75;;;25.57;68.81
9187;BME280;7273;48.902;9.410;2022-10-18T10:47:30;99028.53;;;26.11;61.49
9187;BME280;7273;48.902;9.410;2022-10-18T10:49:56;99019.34;;;27.01;68.51
9187;BME280;7273;48.902;9.410;2022-10-18T10:52:24;99024.91;;;27.70;68.30
9187;BME280;7273;48.902;9.410;2022-10-18T10:54:52;99023.66;;;28.25;68.36
9187;BME280;7273;48.902;9.410;2022-10-18T10:57:23;99020.13;;;29.18;67.61
9187;BME280;7273;48.902;9.410;2022-10-18T10:59:52;99018.72;;;29.90;67.01
9187;BME280;7273;48.902;9.410;2022-10-18T11:04:50;99014.28;;;31.03;66.36
9187;BME280;7273;48.902;9.410;2022-10-18T11:07:29;99015.25;;;31.28;64.47
9187;BME280;7273;48.902;9.410;2022-10-18T11:10:07;99020.84;;;31.28;67.76
9187;BME280;7273;48.902;9.410;2022-10-18T11:15:19;99028.06;;;30.78;68.05
9187;BME280;7273;48.902;9.410;2022-10-18T11:17:55;99023.69;;;31.35;68.36
9187;BME280;7273;48.902;9.410;2022-10-18T11:20:37;99024.63;;;31.02;68.57
9187;BME280;7273;48.902;9.410;2022-10-18T11:23:07;99026.25;;;30.60;69.84
9187;BME280;7273;48.902;9.410;2022-10-18T11:28:25;99014.84;;;29.39;70.38
9187;BME280;7273;48.902;9.410;2022-10-18T11:44:47;99007.25;;;26.31;56.10
9187;BME280;7273;48.902;9.410;2022-10-18T11:47:53;98995.25;;;25.84;63.41
9187;BME280;7273;48.902;9.410;2022-10-18T12:06:46;98993.38;;;24.96;66.60
9187;BME280;7273;48.902;9.410;2022-10-18T12:09:30;98995.13;;;24.89;65.35
9187;BME280;7273;48.902;9.410;2022-10-18T12:12:23;98987.41;;;24.82;62.15
9187;BME280;7273;48.902;9.410;2022-10-18T12:15:00;98986.72;;;24.85;64.31
9187;BME280;7273;48.902;9.410;2022-10-18T12:19:57;98986.47;;;24.78;64.73
9187;BME280;7273;48.902;9.410;2022-10-18T12:22:33;98986.16;;;24.68;63.75
9187;BME280;7273;48.902;9.410;2022-10-18T12:24:59;98986.84;;;24.77;64.38
9187;BME280;7273;48.902;9.410;2022-10-18T12:27:39;98980.69;;;24.59;63.07
9187;BME280;7273;48.902;9.410;2022-10-18T12:30:13;98976.19;;;24.43;64.20
9187;BME280;7273;48.902;9.410;2022-10-18T12:32:42;98974.91;;;24.28;64.35
9187;BME280;7273;48.902;9.410;2022-10-18T12:35:14;98975.59;;;24.25;63.52
9187;BME280;7273;48.902;9.410;2022-10-18T12:40:24;98977.31;;;24.06;63.44
9187;BME280;7273;48.902;9.410;2022-10-18T12:42:53;98967.00;;;23.94;64.17
9187;BME280;7273;48.902;9.410;2022-10-18T12:45:28;98977.56;;;23.92;63.95
9187;BME280;7273;48.902;9.410;2022-10-18T12:48:06;98972.91;;;24.05;63.40
9187;BME280;7273;48.902;9.410;2022-10-18T12:50:37;98973.47;;;23.98;63.71
9187;BME280;7273;48.902;9.410;2022-10-18T12:53:16;98971.00;;;23.97;63.46
9187;BME280;7273;48.902;9.410;2022-10-18T12:55:47;98971.56;;;23.90;63.95
9187;BME280;7273;48.902;9.410;2022-10-18T13:24:36;98977.28;;;23.40;63.92
9187;BME280;7273;48.902;9.410;2022-10-18T13:35:48;98979.78;;;23.04;64.10
9187;BME280;7273;48.902;9.410;2022-10-18T13:41:08;98976.78;;;22.68;64.61
9187;BME280;7273;48.902;9.410;2022-10-18T13:43:54;98976.69;;;22.47;64.53
9187;BME280;7273;48.902;9.410;2022-10-18T13:52:20;98975.03;;;22.17;65.02
9187;BME280;7273;48.902;9.410;2022-10-18T13:57:35;98977.34;;;21.98;65.18
9187;BME280;7273;48.902;9.410;2022-10-18T14:11:06;98971.25;;;21.84;65.35
9187;BME280;7273;48.902;9.410;2022-10-18T14:14:03;98979.81;;;21.74;65.17
9187;BME280;7273;48.902;9.410;2022-10-18T14:16:48;98986.78;;;21.72;65.17
9187;BME280;7273;48.902;9.410;2022-10-18T14:24:48;98990.53;;;21.59;65.22
9187;BME280;7273;48.902;9.410;2022-10-18T14:27:29;98985.53;;;21.52;65.52
9187;BME280;7273;48.902;9.410;2022-10-18T14:30:13;98992.16;;;21.51;65.52
9187;BME280;7273;48.902;9.410;2022-10-18T14:32:45;98991.19;;;21.47;65.66
9187;BME280;7273;48.902;9.410;2022-10-18T14:35:19;98988.94;;;21.41;65.80
9187;BME280;7273;48.902;9.410;2022-10-18T14:37:51;98996.19;;;21.37;65.70
9187;BME280;7273;48.902;9.410;2022-10-18T14:42:51;98994.75;;;21.30;65.89
9187;BME280;7273;48.902;9.410;2022-10-18T14:45:19;98996.34;;;21.31;66.06
9187;BME280;7273;48.902;9.410;2022-10-18T14:47:45;98999.28;;;21.26;66.97
9187;BME280;7273;48.902;9.410;2022-10-18T14:50:25;98999.91;;;21.23;66.38
9187;BME280;7273;48.902;9.410;2022-10-18T14:52:52;98999.75;;;21.20;66.28
9187;BME280;7273;48.902;9.410;2022-10-18T14:55:25;99002.34;;;21.16;66.51
9187;BME280;7273;48.902;9.410;2022-10-18T14:57:53;98999.75;;;21.11;66.31
9187;BME280;7273;48.902;9.410;2022-10-18T15:00:22;98999.44;;;21.04;66.42
9187;BME280;7273;48.902;9.410;2022-10-18T15:02:50;98996.34;;;20.97;66.56
9187;BME280;7273;48.902;9.410;2022-10-18T15:07:41;99004.69;;;20.84;66.97
9187;BME280;7273;48.902;9.410;2022-10-18T15:10:14;99002.06;;;20.79;67.30
9187;BME280;7273;48.902;9.410;2022-10-18T15:12:42;98998.69;;;20.73;67.23
9187;BME280;7273;48.902;9.410;2022-10-18T15:15:20;98991.69;;;20.67;67.67
9187;BME280;7273;48.902;9.410;2022-10-18T15:17:48;98991.69;;;20.59;67.39
9187;BME280;7273;48.902;9.410;2022-10-18T15:20:21;98993.94;;;20.57;67.46
9187;BME280;7273;48.902;9.410;2022-10-18T15:22:49;98991.66;;;20.50;67.36
9187;BME280;7273;48.902;9.410;2022-10-18T15:25:16;98991.34;;;20.52;67.35
9187;BME280;7273;48.902;9.410;2022-10-18T15:27:48;98985.16;;;20.46;67.43
9187;BME280;7273;48.902;9.410;2022-10-18T15:32:50;98986.59;;;20.35;67.58
9187;BME280;7273;48.902;9.410;2022-10-18T15:35:28;98989.34;;;20.35;67.42
9187;BME280;7273;48.902;9.410;2022-10-18T15:37:57;98989.47;;;20.30;67.73
9187;BME280;7273;48.902;9.410;2022-10-18T15:42:54;98979.44;;;20.26;67.66
9187;BME280;7273;48.902;9.410;2022-10-18T15:50:39;98979.81;;;20.11;68.02
9187;BME280;7273;48.902;9.410;2022-10-18T16:00:55;98976.50;;;19.91;68.17
9187;BME280;7273;48.902;9.410;2022-10-18T16:03:22;98975.50;;;19.87;68.17
9187;BME280;7273;48.902;9.410;2022-10-18T16:05:55;98977.25;;;19.83;68.30
9187;BME280;7273;48.902;9.410;2022-10-18T16:08:25;98982.06;;;19.78;68.36
9187;BME280;7273;48.902;9.410;2022-10-18T16:10:52;98974.47;;;19.75;68.58
9187;BME280;7273;48.902;9.410;2022-10-18T16:13:17;98975.09;;;19.72;68.54
9187;BME280;7273;48.902;9.410;2022-10-18T16:15:43;98973.25;;;19.67;68.64
9187;BME280;7273;48.902;9.410;2022-10-18T16:18:13;98978.75;;;19.67;68.76
9187;BME280;7273;48.902;9.410;2022-10-18T16:20:39;98986.00;;;19.63;68.47
9187;BME280;7273;48.902;9.410;2022-10-18T16:23:14;98986.63;;;19.60;68.80
9187;BME280;7273;48.902;9.410;2022-10-18T16:25:40;98992.44;;;19.59;68.63
9187;BME280;7273;48.902;9.410;2022-10-18T16:28:11;98987.59;;;19.56;68.88
9187;BME280;7273;48.902;9.410;2022-10-18T16:30:37;98987.38;;;19.52;68.97
9187;BME280;7273;48.902;9.410;2022-10-18T16:33:03;98999.78;;;19.50;69.07
9187;BME280;7273;48.902;9.410;2022-10-18T16:35:29;99001.44;;;19.51;68.82
9187;BME280;7273;48.902;9.410;2022-10-18T16:37:54;98998.50;;;19.47;68.89
9187;BME280;7273;48.902;9.410;2022-10-18T16:40:24;98997.78;;;19.42;69.24
9187;BME280;7273;48.902;9.410;2022-10-18T16:42:50;99001.97;;;19.39;69.31
9187;BME280;7273;48.902;9.410;2022-10-18T16:45:16;99015.81;;;19.34;69.46
9187;BME280;7273;48.902;9.410;2022-10-18T16:47:42;99007.16;;;19.27;69.62
9187;BME280;7273;48.902;9.410;2022-10-18T16:50:17;99017.13;;;19.23;70.08
9187;BME280;7273;48.902;9.410;2022-10-18T16:52:42;99013.59;;;19.23;70.04